Time;durP1;ratioP1;P1;durP2;ratioP2;P2;SDS_P1;SDS_P2;PMS_P1;PMS_P2;Temp;Humidity;BMP_temperature;BMP_pressure;BME280_temperature;BME280_humidity;BME280_pressure;Samples;Min_cycle;Max_cycle;Signal;HPM_P1;HPM_P2
2022/07/29 00:01:16;;;;;;;8.70;5.20;;;20.40;77.80;;;;;;5039823;28;20573;-50
2022/07/29 00:03:42;;;;;;;5.10;4.50;;;20.30;77.00;;;;;;5036474;28;20488;-50
2022/07/29 00:06:10;;;;;;;5.10;4.70;;;20.30;76.20;;;;;;5042056;28;20486;-51
2022/07/29 00:08:37;;;;;;;7.33;4.40;;;20.30;76.90;;;;;;5040258;28;20811;-50
2022/07/29 00:11:04;;;;;;;5.63;4.60;;;20.20;76.80;;;;;;5039497;28;20512;-50
2022/07/29 00:13:31;;;;;;;6.27;4.83;;;20.10;77.30;;;;;;5036318;28;20483;-50
2022/07/29 00:15:57;;;;;;;5.30;4.80;;;19.90;77.70;;;;;;5040023;28;20483;-50
2022/07/29 00:18:24;;;;;;;5.77;5.13;;;19.80;77.90;;;;;;5037818;28;20891;-51
2022/07/29 00:20:51;;;;;;;6.47;4.10;;;19.80;78.40;;;;;;5040542;28;20522;-50
2022/07/29 00:23:18;;;;;;;7.40;5.00;;;19.60;78.20;;;;;;5035329;28;20496;-50
2022/07/29 00:25:45;;;;;;;5.50;5.00;;;19.60;78.80;;;;;;5037844;28;20488;-50
2022/07/29 00:28:12;;;;;;;9.03;5.50;;;19.50;78.80;;;;;;5022219;28;20485;-50
2022/07/29 00:30:38;;;;;;;8.40;4.30;;;19.50;79.40;;;;;;5041594;28;20786;-50
2022/07/29 00:33:05;;;;;;;8.40;4.50;;;19.50;78.20;;;;;;5040174;28;20557;-50
2022/07/29 00:35:46;;;;;;;6.67;5.20;;;19.50;78.80;;;;;;5038386;28;20518;-50
2022/07/29 00:38:14;;;;;;;5.67;4.97;;;19.40;78.00;;;;;;5041178;28;20459;-50
2022/07/29 00:40:42;;;;;;;5.20;4.70;;;19.40;78.40;;;;;;5038238;28;21146;-50
2022/07/29 00:43:09;;;;;;;9.23;5.13;;;19.40;78.70;;;;;;5042042;28;20553;-50
2022/07/29 00:45:36;;;;;;;11.80;6.03;;;19.30;78.10;;;;;;5037889;28;21000;-51
2022/07/29 00:48:04;;;;;;;5.20;4.80;;;19.30;78.90;;;;;;5040272;28;20483;-50
2022/07/29 00:50:31;;;;;;;6.07;5.47;;;19.20;79.60;;;;;;5039528;28;20474;-50
2022/07/29 00:52:58;;;;;;;4.67;4.27;;;19.10;78.80;;;;;;5039006;28;21006;-50
2022/07/29 00:55:25;;;;;;;5.70;5.20;;;18.90;79.50;;;;;;5036659;28;20747;-50
2022/07/29 00:57:54;;;;;;;4.60;4.30;;;18.90;80.30;;;;;;5038601;28;20479;-50
2022/07/29 01:00:23;;;;;;;14.57;7.77;;;18.50;80.70;;;;;;5037507;28;20488;-50
2022/07/29 01:02:50;;;;;;;9.90;4.80;;;18.40;81.20;;;;;;5038805;28;20543;-50
2022/07/29 01:05:20;;;;;;;5.47;4.93;;;18.30;81.90;;;;;;5039170;28;20488;-50
2022/07/29 01:07:49;;;;;;;8.00;5.13;;;18.30;80.50;;;;;;5037125;28;20483;-50
2022/07/29 01:10:17;;;;;;;5.10;4.40;;;18.40;80.20;;;;;;5037999;28;20533;-51
2022/07/29 01:12:45;;;;;;;7.03;5.40;;;18.40;80.30;;;;;;5038782;28;20530;-50
2022/07/29 01:15:13;;;;;;;6.00;5.40;;;18.40;81.10;;;;;;5037235;28;20719;-50
2022/07/29 01:17:44;;;;;;;4.97;4.40;;;18.10;81.00;;;;;;5043068;28;20964;-51
2022/07/29 01:20:16;;;;;;;5.50;5.00;;;18.10;81.80;;;;;;5036348;28;20480;-51
2022/07/29 01:23:25;;;;;;;6.17;5.43;;;17.80;82.50;;;;;;5038885;28;21310;-50
2022/07/29 01:26:28;;;;;;;6.83;5.93;;;17.60;82.80;;;;;;5015453;28;20469;-50
2022/07/29 01:29:04;;;;;;;7.03;5.93;;;17.60;82.10;;;;;;5015144;28;20892;-50
2022/07/29 01:31:39;;;;;;;8.20;5.20;;;17.60;82.50;;;;;;5029567;28;20549;-50
2022/07/29 01:34:09;;;;;;;5.57;5.00;;;17.70;81.80;;;;;;5031171;28;20493;-50
2022/07/29 01:36:44;;;;;;;5.63;5.13;;;17.50;82.80;;;;;;5058183;28;20478;-50
2022/07/29 01:39:13;;;;;;;5.30;4.83;;;17.40;83.10;;;;;;5030227;28;20892;-51
2022/07/29 01:41:47;;;;;;;5.77;5.23;;;17.40;83.30;;;;;;5038072;28;20902;-51
2022/07/29 01:44:19;;;;;;;5.37;4.83;;;17.50;82.30;;;;;;5034297;28;21049;-51
2022/07/29 01:46:53;;;;;;;5.20;4.80;;;17.50;83.60;;;;;;5038630;28;20487;-50
2022/07/29 01:49:24;;;;;;;6.57;5.97;;;17.60;82.30;;;;;;5037130;28;20495;-51
2022/07/29 01:51:55;;;;;;;9.07;5.90;;;17.60;82.30;;;;;;5032077;28;21225;-50
2022/07/29 01:54:27;;;;;;;6.97;5.40;;;17.60;82.50;;;;;;5049902;28;20487;-51
2022/07/29 01:56:57;;;;;;;6.27;5.60;;;17.60;81.90;;;;;;5034977;28;20495;-50
2022/07/29 01:59:27;;;;;;;6.57;5.80;;;17.60;82.20;;;;;;5036883;28;20772;-50
2022/07/29 02:01:55;;;;;;;6.17;5.03;;;17.40;82.60;;;;;;5041777;28;20480;-50
2022/07/29 02:04:23;;;;;;;6.20;4.70;;;17.20;82.70;;;;;;5038620;28;20475;-51
2022/07/29 02:06:52;;;;;;;7.83;5.97;;;17.20;83.30;;;;;;5042154;28;20943;-50
2022/07/29 02:09:20;;;;;;;5.40;4.90;;;17.10;83.40;;;;;;5040988;28;20493;-50
2022/07/29 02:11:51;;;;;;;9.77;6.07;;;16.70;84.70;;;;;;5048083;28;20466;-51
2022/07/29 02:14:20;;;;;;;7.00;5.67;;;16.60;85.30;;;;;;5043233;28;21091;-50
2022/07/29 02:16:51;;;;;;;8.03;5.67;;;16.60;85.70;;;;;;5043108;28;20487;-51
2022/07/29 02:19:20;;;;;;;6.97;5.47;;;16.80;84.80;;;;;;5041386;28;21192;-50
2022/07/29 02:21:48;;;;;;;6.57;5.60;;;16.80;84.70;;;;;;5041525;28;20554;-51
2022/07/29 02:24:17;;;;;;;10.17;6.40;;;16.90;84.50;;;;;;5041389;28;20518;-49
2022/07/29 02:26:45;;;;;;;6.20;5.60;;;16.90;84.00;;;;;;5042211;28;20503;-50
2022/07/29 02:29:13;;;;;;;8.90;5.90;;;17.00;84.60;;;;;;5039561;28;21002;-50
2022/07/29 02:31:43;;;;;;;9.20;5.83;;;17.00;83.90;;;;;;5047480;28;21486;-50
2022/07/29 02:34:12;;;;;;;6.57;5.97;;;17.00;83.50;;;;;;5043232;28;20974;-50
2022/07/29 02:36:40;;;;;;;6.30;5.23;;;17.00;83.40;;;;;;5041172;28;20528;-53
2022/07/29 02:39:10;;;;;;;9.00;4.87;;;16.80;83.90;;;;;;5029910;28;20479;-51
2022/07/29 02:41:42;;;;;;;13.10;6.00;;;16.80;84.60;;;;;;5039728;28;20961;-51
2022/07/29 02:44:12;;;;;;;6.53;5.90;;;16.70;83.40;;;;;;5029941;28;20881;-51
2022/07/29 02:46:46;;;;;;;6.10;5.50;;;16.70;83.50;;;;;;5030983;28;21531;-51
2022/07/29 02:49:19;;;;;;;6.23;5.40;;;16.70;83.80;;;;;;5031421;28;20475;-51
2022/07/29 02:51:50;;;;;;;7.20;5.60;;;16.70;83.90;;;;;;5042413;28;20476;-50
2022/07/29 02:54:24;;;;;;;6.53;5.90;;;16.70;84.10;;;;;;5045288;28;20514;-50
2022/07/29 02:56:55;;;;;;;8.30;7.13;;;16.70;84.20;;;;;;5036051;28;20474;-50
2022/07/29 02:59:27;;;;;;;7.27;6.57;;;16.70;83.70;;;;;;5039935;28;21051;-50
2022/07/29 03:01:56;;;;;;;6.23;5.27;;;16.70;83.60;;;;;;5040790;28;20480;-50
2022/07/29 03:04:25;;;;;;;6.83;5.23;;;16.40;84.20;;;;;;5041160;28;20904;-50
2022/07/29 03:06:54;;;;;;;6.97;6.27;;;16.30;84.50;;;;;;5040423;28;20483;-50
2022/07/29 03:09:22;;;;;;;7.83;6.30;;;16.20;85.10;;;;;;5037759;28;21056;-51
2022/07/29 03:11:49;;;;;;;8.57;7.60;;;16.00;85.90;;;;;;5040807;28;20479;-50
2022/07/29 03:14:17;;;;;;;9.33;6.10;;;16.00;85.80;;;;;;5039460;28;20483;-50
2022/07/29 03:16:44;;;;;;;12.50;6.43;;;16.00;85.90;;;;;;5038744;28;20605;-51
2022/07/29 03:19:10;;;;;;;6.03;5.43;;;16.00;85.40;;;;;;5042216;28;20480;-50
2022/07/29 03:21:39;;;;;;;5.87;5.37;;;16.00;85.70;;;;;;5040124;28;20541;-50
2022/07/29 03:24:06;;;;;;;9.17;6.60;;;16.00;86.50;;;;;;5040036;28;20484;-50
2022/07/29 03:26:33;;;;;;;7.40;6.70;;;15.80;88.20;;;;;;5040190;28;20506;-50
2022/07/29 03:29:00;;;;;;;7.10;5.50;;;15.60;86.70;;;;;;5038839;28;20496;-50
2022/07/29 03:31:27;;;;;;;10.27;8.57;;;15.60;86.20;;;;;;5036861;28;20969;-50
2022/07/29 03:33:54;;;;;;;7.20;5.07;;;15.60;86.10;;;;;;5038702;28;20553;-54
2022/07/29 03:36:20;;;;;;;7.00;6.37;;;15.60;86.20;;;;;;5039412;28;20495;-51
2022/07/29 03:38:49;;;;;;;7.37;5.80;;;15.60;85.90;;;;;;5043496;28;20533;-51
2022/07/29 03:41:19;;;;;;;7.50;6.77;;;15.60;86.50;;;;;;5040273;28;20475;-51
2022/07/29 03:43:48;;;;;;;10.67;6.90;;;15.70;85.70;;;;;;5040908;28;20483;-50
2022/07/29 03:46:17;;;;;;;6.33;5.83;;;15.80;85.90;;;;;;5039234;28;20484;-50
2022/07/29 03:48:49;;;;;;;11.70;7.37;;;15.80;86.30;;;;;;5043075;28;20501;-50
2022/07/29 03:51:16;;;;;;;6.70;5.60;;;15.70;85.90;;;;;;5039394;28;20485;-51
2022/07/29 03:53:43;;;;;;;10.57;6.47;;;15.50;86.10;;;;;;5037906;28;20483;-50
2022/07/29 03:56:12;;;;;;;11.33;6.70;;;15.40;86.70;;;;;;5039614;28;21048;-51
2022/07/29 03:58:41;;;;;;;13.30;6.10;;;15.40;87.10;;;;;;5037744;28;20480;-51
2022/07/29 04:01:08;;;;;;;9.37;6.60;;;15.40;86.70;;;;;;5037813;28;20482;-51
2022/07/29 04:03:35;;;;;;;8.47;7.60;;;15.40;87.00;;;;;;5031237;28;20545;-50
2022/07/29 04:06:05;;;;;;;9.53;6.87;;;15.30;87.30;;;;;;5042018;28;20525;-50
2022/07/29 04:08:32;;;;;;;9.50;8.60;;;15.10;89.30;;;;;;5039117;28;20534;-51
2022/07/29 04:10:58;;;;;;;12.57;7.67;;;15.00;90.20;;;;;;5034899;28;20916;-50
2022/07/29 04:13:27;;;;;;;13.17;10.10;;;15.00;90.60;;;;;;5038009;28;20476;-51
2022/07/29 04:15:53;;;;;;;7.53;6.83;;;15.00;90.90;;;;;;5039983;28;20482;-51
2022/07/29 04:18:20;;;;;;;10.40;8.27;;;15.10;88.60;;;;;;5036333;28;20479;-51
2022/07/29 04:20:46;;;;;;;11.30;5.73;;;15.30;87.70;;;;;;5045160;28;20700;-50
2022/07/29 04:23:13;;;;;;;6.70;6.03;;;15.30;88.30;;;;;;5038853;28;20525;-50
2022/07/29 04:25:41;;;;;;;7.93;6.17;;;15.30;88.50;;;;;;5037650;28;20730;-50
2022/07/29 04:28:09;;;;;;;8.20;6.30;;;15.30;88.00;;;;;;5037961;28;21090;-50
2022/07/29 04:30:38;;;;;;;7.40;6.10;;;15.40;87.90;;;;;;5037240;28;20487;-50
2022/07/29 04:33:06;;;;;;;12.80;6.30;;;15.30;88.50;;;;;;5025936;28;20484;-50
2022/07/29 04:35:35;;;;;;;8.27;7.23;;;15.40;88.30;;;;;;5048052;28;20483;-51
2022/07/29 04:38:02;;;;;;;7.27;6.47;;;15.40;87.50;;;;;;5038514;28;21085;-50
2022/07/29 04:40:29;;;;;;;11.07;8.40;;;15.40;88.00;;;;;;5037097;28;20981;-50
2022/07/29 04:42:56;;;;;;;7.40;6.33;;;15.30;88.00;;;;;;5039530;28;20475;-50
2022/07/29 04:45:23;;;;;;;10.60;8.40;;;15.10;89.40;;;;;;5033275;28;20628;-51
2022/07/29 04:47:51;;;;;;;8.80;7.13;;;15.10;90.00;;;;;;5036149;28;20480;-51
2022/07/29 04:50:17;;;;;;;22.23;7.83;;;15.10;90.20;;;;;;5027011;28;20476;-51
2022/07/29 04:52:44;;;;;;;7.57;6.70;;;15.00;90.40;;;;;;5038315;28;20483;-51
2022/07/29 04:55:11;;;;;;;9.80;7.87;;;15.10;90.70;;;;;;5036353;28;21165;-50
2022/07/29 04:57:37;;;;;;;9.03;7.47;;;15.20;90.30;;;;;;5059459;28;20551;-50
2022/07/29 05:00:05;;;;;;;6.70;6.07;;;15.30;90.40;;;;;;5038721;28;20499;-50
2022/07/29 05:02:32;;;;;;;11.53;9.20;;;15.50;90.40;;;;;;5037356;28;20566;-50
2022/07/29 05:05:00;;;;;;;8.60;7.53;;;15.50;90.40;;;;;;5037326;28;20548;-50
2022/07/29 05:07:27;;;;;;;7.93;7.23;;;15.80;90.20;;;;;;5036876;28;20545;-50
2022/07/29 05:09:56;;;;;;;8.80;7.57;;;15.90;90.40;;;;;;5036003;28;20529;-51
2022/07/29 05:12:23;;;;;;;8.53;7.50;;;16.10;90.80;;;;;;5037443;28;20565;-51
2022/07/29 05:14:49;;;;;;;8.60;7.50;;;16.20;90.80;;;;;;5037990;28;20541;-50
2022/07/29 05:17:16;;;;;;;12.00;6.00;;;16.10;91.40;;;;;;5038200;28;20484;-50
2022/07/29 05:19:43;;;;;;;10.50;6.00;;;16.20;91.20;;;;;;5037296;28;20536;-50
2022/07/29 05:22:11;;;;;;;9.97;7.13;;;16.20;91.60;;;;;;5037632;28;20487;-50
2022/07/29 05:24:37;;;;;;;8.73;7.83;;;16.20;91.70;;;;;;5034039;28;20831;-50
2022/07/29 05:27:04;;;;;;;14.83;7.57;;;16.40;91.30;;;;;;5037780;28;20697;-50
2022/07/29 05:29:31;;;;;;;9.53;8.60;;;16.50;91.30;;;;;;4983725;28;1554086;-50
2022/07/29 05:31:58;;;;;;;7.77;7.07;;;16.60;91.20;;;;;;5040652;28;20244;-49
2022/07/29 05:34:24;;;;;;;21.97;8.83;;;16.80;91.60;;;;;;5036506;28;20484;-50
2022/07/29 05:36:51;;;;;;;10.97;7.87;;;16.80;91.80;;;;;;5039973;28;20952;-50
2022/07/29 05:39:19;;;;;;;10.27;7.97;;;17.00;91.80;;;;;;5037018;28;20484;-50
2022/07/29 05:41:46;;;;;;;9.17;8.27;;;17.10;91.70;;;;;;5035470;28;21080;-50
2022/07/29 05:44:13;;;;;;;8.40;7.70;;;17.20;92.10;;;;;;5047019;28;20484;-50
2022/07/29 05:46:40;;;;;;;10.77;7.37;;;17.30;91.60;;;;;;5035788;28;20487;-50
2022/07/29 05:49:07;;;;;;;9.53;7.90;;;17.60;91.00;;;;;;5037193;28;20484;-50
2022/07/29 05:51:33;;;;;;;9.50;8.17;;;17.90;90.70;;;;;;5037635;28;20549;-50
2022/07/29 05:54:00;;;;;;;8.00;6.60;;;18.00;90.90;;;;;;5030538;28;20487;-50
2022/07/29 05:56:28;;;;;;;9.60;8.07;;;18.20;90.80;;;;;;5035085;28;20953;-50
2022/07/29 05:58:55;;;;;;;11.60;7.00;;;18.40;90.80;;;;;;5023523;28;20529;-49
2022/07/29 06:01:22;;;;;;;11.03;7.23;;;18.60;90.10;;;;;;5031372;28;20479;-50
2022/07/29 06:03:48;;;;;;;11.00;7.80;;;18.90;89.10;;;;;;5034389;28;20879;-50
2022/07/29 06:06:15;;;;;;;12.60;7.30;;;18.90;89.70;;;;;;5036853;28;20476;-50
2022/07/29 06:08:42;;;;;;;9.47;7.30;;;19.20;88.10;;;;;;5039368;28;20529;-50
2022/07/29 06:11:09;;;;;;;7.30;6.53;;;19.30;87.20;;;;;;5037958;28;20815;-50
2022/07/29 06:13:37;;;;;;;8.40;7.70;;;19.50;88.60;;;;;;5034456;28;20522;-50
2022/07/29 06:16:04;;;;;;;7.50;6.47;;;19.60;89.20;;;;;;5039864;28;20480;-50
2022/07/29 06:18:31;;;;;;;7.13;6.53;;;19.70;89.40;;;;;;5035540;28;20516;-50
2022/07/29 06:20:58;;;;;;;8.17;7.37;;;19.70;90.20;;;;;;5033883;28;20514;-50
2022/07/29 06:23:24;;;;;;;9.50;8.53;;;19.90;89.70;;;;;;5034528;28;20537;-50
2022/07/29 06:25:51;;;;;;;7.93;6.53;;;19.90;88.80;;;;;;5029917;28;20486;-49
2022/07/29 06:28:18;;;;;;;9.30;7.23;;;20.00;88.70;;;;;;5036387;28;20527;-50
2022/07/29 06:30:46;;;;;;;9.00;7.20;;;20.10;89.40;;;;;;5036924;28;20475;-50
2022/07/29 06:33:17;;;;;;;9.63;6.90;;;20.00;89.80;;;;;;5035890;28;20518;-50
2022/07/29 06:35:45;;;;;;;6.07;5.50;;;20.00;90.00;;;;;;5036626;28;20484;-50
2022/07/29 06:38:12;;;;;;;8.17;7.43;;;20.10;90.10;;;;;;5036922;28;20909;-50
2022/07/29 06:43:26;;;;;;;16.20;8.20;;;20.40;90.00;;;;;;5032525;28;20479;-50
2022/07/29 06:45:54;;;;;;;11.73;5.30;;;20.70;86.30;;;;;;5039717;28;20473;-50
2022/07/29 06:48:21;;;;;;;7.63;6.73;;;20.80;86.90;;;;;;5041119;28;20487;-50
2022/07/29 06:50:48;;;;;;;6.77;6.17;;;20.90;85.00;;;;;;5043733;28;20490;-50
2022/07/29 06:53:15;;;;;;;5.80;5.27;;;21.30;84.50;;;;;;5041737;28;20551;-50
2022/07/29 06:55:42;;;;;;;7.77;6.10;;;21.30;84.60;;;;;;5040253;28;20488;-50
2022/07/29 06:58:08;;;;;;;6.33;5.30;;;21.70;82.50;;;;;;5041392;28;20517;-50
2022/07/29 07:00:35;;;;;;;11.27;5.70;;;21.70;81.40;;;;;;5040165;28;20495;-50
2022/07/29 07:03:09;;;;;;;7.03;6.17;;;21.80;81.70;;;;;;5041677;28;20479;-51
2022/07/29 07:05:36;;;;;;;7.63;5.63;;;21.80;81.00;;;;;;5031227;28;20474;-51
2022/07/29 07:08:03;;;;;;;5.27;4.77;;;22.00;80.20;;;;;;5041535;28;20474;-50
2022/07/29 07:10:29;;;;;;;8.63;7.13;;;22.00;80.40;;;;;;5039056;28;20487;-51
2022/07/29 07:12:56;;;;;;;6.07;5.57;;;;;;;;;;5038628;28;20824;-51
2022/07/29 07:15:23;;;;;;;11.63;6.87;;;22.20;81.30;;;;;;5038533;28;20495;-51
2022/07/29 07:17:50;;;;;;;6.77;5.47;;;22.20;81.50;;;;;;5032733;28;20552;-51
2022/07/29 07:23:03;;;;;;;5.63;5.00;;;23.00;80.30;;;;;;5041116;28;20532;-50
2022/07/29 07:25:30;;;;;;;6.80;5.23;;;23.20;80.10;;;;;;5037019;28;20530;-50
2022/07/29 07:27:56;;;;;;;5.33;4.83;;;23.50;75.90;;;;;;5040367;28;20484;-51
2022/07/29 07:30:23;;;;;;;4.47;4.07;;;23.40;76.60;;;;;;5037506;28;20480;-51
2022/07/29 07:32:50;;;;;;;4.53;4.10;;;23.50;75.50;;;;;;5041145;28;20468;-52
2022/07/29 07:35:18;;;;;;;7.47;5.00;;;23.40;75.80;;;;;;5040274;28;20513;-51
2022/07/29 07:37:44;;;;;;;6.30;4.83;;;23.30;75.10;;;;;;5039510;28;20529;-51
2022/07/29 07:40:12;;;;;;;5.00;4.60;;;23.30;74.60;;;;;;5040968;28;20476;-51
2022/07/29 07:42:39;;;;;;;7.43;5.20;;;23.10;76.30;;;;;;5039904;28;20479;-51
2022/07/29 07:45:08;;;;;;;15.23;5.23;;;23.10;77.20;;;;;;5038136;28;20980;-52
2022/07/29 07:47:36;;;;;;;12.07;4.70;;;;;;;;;;5024235;28;20513;-51
2022/07/29 07:50:03;;;;;;;5.23;4.73;;;23.20;77.00;;;;;;5047143;28;21293;-51
2022/07/29 07:52:31;;;;;;;6.50;4.90;;;23.40;76.70;;;;;;5043944;28;20867;-51
2022/07/29 07:54:58;;;;;;;7.33;4.93;;;23.60;76.30;;;;;;5039056;28;20534;-51
2022/07/29 07:57:25;;;;;;;4.80;4.30;;;24.00;74.60;;;;;;5040607;28;20897;-51
2022/07/29 07:59:51;;;;;;;5.60;5.00;;;24.10;74.00;;;;;;5037608;28;20591;-51
2022/07/29 08:02:18;;;;;;;5.10;4.60;;;24.40;74.30;;;;;;5036517;28;20483;-51
2022/07/29 08:04:45;;;;;;;6.80;4.80;;;24.70;74.80;;;;;;5027734;28;21074;-51
2022/07/29 08:07:11;;;;;;;4.50;4.10;;;24.90;72.20;;;;;;5053761;28;20483;-50
2022/07/29 08:09:39;;;;;;;6.87;4.80;;;25.00;71.40;;;;;;5038866;28;20471;-51
2022/07/29 08:12:06;;;;;;;11.20;4.20;;;25.00;70.90;;;;;;5019194;28;20468;-51
2022/07/29 08:14:33;;;;;;;5.20;4.70;;;25.20;71.70;;;;;;5034898;28;20506;-52
2022/07/29 08:17:00;;;;;;;4.57;4.17;;;25.30;71.60;;;;;;5041709;28;21046;-51
2022/07/29 08:19:27;;;;;;;5.50;5.00;;;25.30;70.60;;;;;;5038784;28;20547;-51
2022/07/29 08:21:54;;;;;;;5.23;4.53;;;25.60;71.10;;;;;;5038176;28;21012;-51
2022/07/29 08:27:06;;;;;;;5.33;4.83;;;25.60;68.70;;;;;;5039478;28;20467;-52
2022/07/29 08:29:33;;;;;;;9.17;5.30;;;25.60;69.80;;;;;;5039090;28;20487;-51
2022/07/29 08:32:00;;;;;;;7.90;4.70;;;25.60;69.10;;;;;;5039935;28;20472;-51
2022/07/29 08:34:27;;;;;;;12.03;5.23;;;25.60;69.50;;;;;;5036698;28;20537;-51
2022/07/29 08:36:53;;;;;;;8.03;4.47;;;26.00;69.60;;;;;;5039470;28;20480;-52
2022/07/29 08:39:20;;;;;;;8.87;5.37;;;26.30;68.80;;;;;;5039827;28;20532;-52
2022/07/29 08:41:47;;;;;;;6.23;4.67;;;26.80;68.00;;;;;;5038237;28;20546;-52
2022/07/29 08:44:16;;;;;;;5.43;4.63;;;27.20;66.20;;;;;;5037376;28;20965;-51
2022/07/29 08:46:43;;;;;;;8.10;4.90;;;27.40;64.90;;;;;;5036984;28;20503;-53
2022/07/29 08:49:10;;;;;;;8.17;4.70;;;27.40;65.80;;;;;;5037565;28;20933;-53
2022/07/29 08:51:39;;;;;;;8.40;4.43;;;27.30;65.30;;;;;;5039871;28;21042;-51
2022/07/29 08:54:07;;;;;;;9.73;4.77;;;27.40;65.20;;;;;;5038451;28;20565;-51
2022/07/29 08:56:34;;;;;;;5.80;4.40;;;27.40;65.50;;;;;;5042427;28;20860;-52
2022/07/29 08:59:04;;;;;;;5.40;4.27;;;27.40;65.00;;;;;;5039634;28;20472;-52
2022/07/29 09:01:34;;;;;;;5.90;4.50;;;27.50;65.20;;;;;;5038068;28;20513;-51
2022/07/29 09:04:03;;;;;;;4.60;4.20;;;27.70;64.10;;;;;;5037067;28;20567;-52
2022/07/29 09:06:33;;;;;;;8.97;4.70;;;28.00;63.50;;;;;;5036981;28;20553;-52
2022/07/29 09:09:01;;;;;;;5.97;4.60;;;28.00;62.40;;;;;;5038209;28;20461;-52
2022/07/29 09:11:28;;;;;;;5.60;3.93;;;28.10;63.00;;;;;;5036811;28;20483;-52
2022/07/29 09:13:55;;;;;;;6.90;4.00;;;28.20;63.80;;;;;;5041130;28;20964;-51
2022/07/29 09:16:21;;;;;;;8.00;5.07;;;28.20;64.30;;;;;;5027927;28;20499;-52
2022/07/29 09:18:49;;;;;;;4.13;3.80;;;28.20;63.30;;;;;;5050944;28;20487;-52
2022/07/29 09:24:06;;;;;;;5.73;4.17;;;28.50;64.50;;;;;;5036810;28;24129;-52
2022/07/29 09:26:35;;;;;;;4.40;4.00;;;28.40;61.60;;;;;;5037106;28;20471;-52
2022/07/29 09:29:10;;;;;;;6.00;3.70;;;28.20;60.40;;;;;;5039501;28;20522;-52
2022/07/29 09:31:41;;;;;;;5.60;3.60;;;28.20;60.20;;;;;;5035822;28;20475;-52
2022/07/29 09:34:09;;;;;;;5.77;4.17;;;28.00;61.20;;;;;;5036315;28;20996;-51
2022/07/29 09:36:43;;;;;;;3.93;3.63;;;28.10;61.90;;;;;;5038138;28;20832;-52
2022/07/29 09:39:10;;;;;;;7.60;5.10;;;28.20;63.90;;;;;;5034580;28;20480;-52
2022/07/29 09:41:48;;;;;;;4.43;4.03;;;28.40;62.70;;;;;;5037551;28;20476;-52
2022/07/29 09:44:14;;;;;;;5.20;4.00;;;28.50;61.00;;;;;;5020812;28;20809;-52
2022/07/29 09:46:52;;;;;;;7.50;4.07;;;28.60;60.70;;;;;;5052140;28;21022;-51
2022/07/29 09:49:20;;;;;;;6.60;3.93;;;28.80;61.00;;;;;;5039165;28;20561;-54
2022/07/29 09:51:48;;;;;;;7.40;4.90;;;29.00;59.40;;;;;;5034333;28;20533;-52
2022/07/29 09:54:25;;;;;;;3.50;3.20;;;28.80;58.60;;;;;;5037614;28;20509;-54
2022/07/29 09:56:52;;;;;;;5.50;4.20;;;28.90;59.10;;;;;;5034581;28;20582;-52
2022/07/29 09:59:20;;;;;;;4.27;3.60;;;28.80;59.40;;;;;;5037859;28;20639;-52
2022/07/29 10:01:47;;;;;;;4.90;4.17;;;28.60;59.10;;;;;;5035955;28;20549;-52
2022/07/29 10:04:14;;;;;;;5.00;3.67;;;28.50;58.90;;;;;;5036704;28;20567;-50
2022/07/29 10:07:01;;;;;;;5.40;4.30;;;28.40;60.40;;;;;;5027114;28;20520;-51
2022/07/29 10:09:28;;;;;;;3.77;3.33;;;28.40;59.10;;;;;;5039091;28;20977;-52
2022/07/29 10:12:10;;;;;;;5.37;4.23;;;28.10;58.70;;;;;;5037939;28;20480;-51
2022/07/29 10:14:38;;;;;;;4.93;4.23;;;28.20;59.70;;;;;;5033210;28;20966;-51
2022/07/29 10:17:06;;;;;;;3.80;3.50;;;28.20;59.40;;;;;;5038427;28;20491;-51
2022/07/29 10:19:34;;;;;;;4.33;3.93;;;28.40;59.80;;;;;;5035213;28;20495;-54
2022/07/29 10:22:04;;;;;;;5.47;3.93;;;28.50;59.40;;;;;;5041085;28;20490;-50
2022/07/29 10:24:33;;;;;;;3.80;3.47;;;29.20;60.10;;;;;;5038713;28;20912;-50
2022/07/29 10:27:01;;;;;;;7.27;3.97;;;29.60;59.60;;;;;;5041306;28;20494;-50
2022/07/29 10:29:31;;;;;;;6.93;4.40;;;30.00;58.60;;;;;;5041037;28;20498;-51
2022/07/29 10:32:15;;;;;;;8.73;3.50;;;30.10;58.80;;;;;;5041920;28;20511;-51
2022/07/29 10:34:58;;;;;;;4.80;2.97;;;30.20;57.40;;;;;;5025565;28;20935;-51
2022/07/29 10:37:33;;;;;;;5.50;3.60;;;29.80;56.50;;;;;;5029731;28;20468;-52
2022/07/29 10:41:26;;;;;;;5.10;3.80;;;29.60;57.20;;;;;;5037480;28;20891;-52
2022/07/29 10:43:08;;;;;;;8.40;3.90;;;28.80;55.60;;;;;;5039643;28;20487;-51
2022/07/29 10:45:35;;;;;;;6.93;3.63;;;28.80;56.00;;;;;;5039721;28;20556;-51
2022/07/29 10:48:06;;;;;;;4.37;3.97;;;28.80;57.10;;;;;;5044366;28;20486;-52
2022/07/29 10:50:54;;;;;;;9.67;3.10;;;29.10;59.00;;;;;;5037464;28;21011;-51
2022/07/29 10:53:23;;;;;;;9.40;2.50;;;29.40;58.80;;;;;;5040846;28;20472;-53
2022/07/29 10:55:51;;;;;;;5.47;2.80;;;29.50;53.90;;;;;;5042077;28;20967;-52
2022/07/29 10:58:19;;;;;;;4.50;2.57;;;29.50;54.50;;;;;;5039962;28;21225;-52
2022/07/29 11:00:47;;;;;;;5.60;2.60;;;30.00;53.50;;;;;;5022187;28;20446;-50
2022/07/29 11:03:45;;;;;;;2.33;2.13;;;30.30;54.10;;;;;;5039773;28;20563;-50
2022/07/29 11:06:12;;;;;;;4.83;2.97;;;30.40;51.20;;;;;;5012207;28;20502;-51
2022/07/29 11:08:41;;;;;;;3.30;2.63;;;31.00;52.60;;;;;;5038694;28;20999;-52
2022/07/29 11:11:40;;;;;;;5.20;2.27;;;31.30;51.30;;;;;;5036311;28;20519;-53
2022/07/29 11:14:07;;;;;;;4.03;2.27;;;31.30;50.90;;;;;;5033253;28;20450;-51
2022/07/29 11:16:59;;;;;;;2.40;2.07;;;31.40;51.20;;;;;;5038660;28;20881;-52
2022/07/29 11:19:26;;;;;;;2.30;1.77;;;31.50;50.90;;;;;;5029606;28;20506;-53
2022/07/29 11:21:52;;;;;;;5.93;2.07;;;31.00;48.60;;;;;;5038856;28;20835;-53
2022/07/29 11:24:23;;;;;;;2.20;2.00;;;30.80;48.10;;;;;;5039431;28;20493;-51
2022/07/29 11:27:12;;;;;;;5.90;2.40;;;30.60;47.70;;;;;;5029416;28;20470;-51
2022/07/29 11:29:41;;;;;;;5.83;3.20;;;30.40;49.60;;;;;;5040058;28;20472;-51
2022/07/29 11:32:14;;;;;;;3.23;2.50;;;30.60;48.90;;;;;;5040285;28;20905;-51
2022/07/29 11:34:41;;;;;;;3.80;2.07;;;30.70;49.30;;;;;;5036030;28;20510;-50
2022/07/29 11:37:21;;;;;;;2.73;2.13;;;30.70;49.60;;;;;;5038295;28;20837;-50
2022/07/29 11:40:10;;;;;;;6.90;2.73;;;30.80;48.30;;;;;;5029336;28;20453;-51
2022/07/29 11:42:45;;;;;;;2.10;1.77;;;30.70;49.70;;;;;;5042428;28;20472;-51
2022/07/29 11:45:14;;;;;;;4.40;1.80;;;30.70;49.80;;;;;;5040909;28;20478;-51
2022/07/29 11:47:42;;;;;;;4.47;2.30;;;30.80;50.10;;;;;;5039857;28;20499;-51
2022/07/29 11:50:12;;;;;;;4.40;2.30;;;30.50;48.90;;;;;;5040670;28;20520;-51
2022/07/29 11:52:44;;;;;;;3.77;2.10;;;30.20;48.60;;;;;;5039577;28;20487;-51
2022/07/29 11:55:14;;;;;;;2.53;1.97;;;30.10;49.00;;;;;;5037948;28;21083;-51
2022/07/29 11:57:48;;;;;;;2.50;1.90;;;30.00;49.90;;;;;;5043595;28;20480;-51
2022/07/29 12:00:23;;;;;;;3.70;2.00;;;30.20;49.80;;;;;;5040190;28;20554;-52
2022/07/29 12:02:50;;;;;;;5.10;2.07;;;30.10;48.10;;;;;;5040645;28;20483;-50
2022/07/29 12:05:17;;;;;;;2.30;2.00;;;30.00;49.60;;;;;;5040173;28;20521;-51
2022/07/29 12:07:44;;;;;;;3.30;2.17;;;30.10;50.10;;;;;;5034249;28;20541;-50
2022/07/29 12:10:12;;;;;;;3.80;1.90;;;29.90;51.00;;;;;;5039562;28;20499;-51
2022/07/29 12:12:39;;;;;;;3.40;1.90;;;29.80;50.00;;;;;;5039126;28;20853;-50
2022/07/29 12:15:20;;;;;;;3.70;1.97;;;29.80;49.60;;;;;;5036161;28;20896;-51
2022/07/29 12:17:47;;;;;;;2.93;2.47;;;29.90;50.50;;;;;;5036975;28;20511;-51
2022/07/29 12:20:22;;;;;;;8.00;2.90;;;30.00;49.90;;;;;;5027458;28;20523;-50
2022/07/29 12:22:49;;;;;;;4.17;1.90;;;29.90;49.70;;;;;;5034616;28;20453;-51
2022/07/29 12:25:18;;;;;;;3.40;2.00;;;29.90;49.90;;;;;;5032839;28;20499;-51
2022/07/29 12:27:45;;;;;;;2.47;1.67;;;29.90;50.20;;;;;;5044698;28;20487;-50
2022/07/29 12:30:14;;;;;;;8.63;2.60;;;29.80;50.00;;;;;;5038432;28;20475;-51
2022/07/29 12:32:43;;;;;;;6.80;2.33;;;29.80;50.00;;;;;;5028031;28;20459;-50
2022/07/29 12:35:13;;;;;;;4.33;2.03;;;29.60;49.50;;;;;;5029419;28;20489;-50
2022/07/29 12:37:42;;;;;;;7.87;2.10;;;29.60;49.90;;;;;;5037082;28;20478;-51
2022/07/29 12:40:10;;;;;;;5.97;2.43;;;29.60;49.20;;;;;;5061807;28;20848;-53
2022/07/29 12:42:38;;;;;;;2.50;1.60;;;29.60;49.20;;;;;;5038943;28;20472;-50
2022/07/29 12:45:06;;;;;;;4.00;2.03;;;29.40;48.60;;;;;;5037022;28;20474;-50
2022/07/29 12:47:33;;;;;;;3.20;1.83;;;29.20;48.20;;;;;;5037985;28;20458;-50
2022/07/29 12:50:10;;;;;;;6.07;1.87;;;29.30;49.10;;;;;;5027235;28;20458;-50
2022/07/29 12:52:37;;;;;;;3.60;1.97;;;29.20;48.10;;;;;;5052881;28;20485;-50
2022/07/29 12:55:05;;;;;;;2.10;1.87;;;29.30;48.80;;;;;;5053931;28;20516;-50
2022/07/29 12:57:32;;;;;;;7.20;2.03;;;29.20;47.80;;;;;;5038381;28;20913;-50
2022/07/29 13:00:07;;;;;;;2.20;1.90;;;29.20;47.90;;;;;;5038106;28;20468;-50
2022/07/29 13:02:34;;;;;;;3.30;2.00;;;29.10;48.40;;;;;;5037884;28;20471;-50
2022/07/29 13:05:03;;;;;;;2.47;2.23;;;29.10;48.00;;;;;;5036777;28;20952;-51
2022/07/29 13:07:32;;;;;;;2.70;2.10;;;29.00;49.00;;;;;;5031509;28;20463;-51